Time;durP1;ratioP1;P1;durP2;ratioP2;P2;SDS_P1;SDS_P2;PMS_P1;PMS_P2;Temp;Humidity;BMP_temperature;BMP_pressure;BME280_temperature;BME280_humidity;BME280_pressure;Samples;Min_cycle;Max_cycle;Signal;HPM_P1;HPM_P2
2023/04/24 00:00:12;;;;;;;1.33;0.80;;;12.10;99.90;;;;;;5094157;28;20032;-68
2023/04/24 00:02:38;;;;;;;1.52;0.80;;;12.10;99.90;;;;;;5093781;28;20044;-69
2023/04/24 00:05:05;;;;;;;1.92;0.70;;;12.00;99.90;;;;;;5091871;28;20553;-69
2023/04/24 00:07:31;;;;;;;0.75;0.57;;;11.90;99.90;;;;;;5093766;28;20040;-69
2023/04/24 00:09:57;;;;;;;1.20;0.52;;;11.80;99.90;;;;;;5108855;28;20039;-68
2023/04/24 00:12:23;;;;;;;1.13;0.60;;;11.80;99.90;;;;;;5082184;28;20055;-69
2023/04/24 00:14:48;;;;;;;0.70;0.70;;;11.80;99.90;;;;;;5122738;27;20031;-69
2023/04/24 00:17:14;;;;;;;1.60;0.60;;;11.70;99.90;;;;;;5097381;28;20044;-69
2023/04/24 00:19:39;;;;;;;0.80;0.60;;;11.70;99.90;;;;;;5097090;28;20514;-69
2023/04/24 00:22:05;;;;;;;0.93;0.50;;;11.70;99.90;;;;;;5097238;28;20047;-69
2023/04/24 00:24:31;;;;;;;0.70;0.63;;;11.60;99.90;;;;;;5101135;28;20048;-69
2023/04/24 00:26:57;;;;;;;0.70;0.60;;;11.60;99.90;;;;;;5108314;28;20036;-69
2023/04/24 00:29:22;;;;;;;0.93;0.70;;;11.60;99.90;;;;;;5096543;28;20496;-69
2023/04/24 00:31:48;;;;;;;1.20;0.60;;;11.70;99.90;;;;;;5113677;28;20411;-69
2023/04/24 00:34:14;;;;;;;0.75;0.60;;;11.60;99.90;;;;;;5094893;28;20088;-69
2023/04/24 00:36:40;;;;;;;0.70;0.70;;;11.60;99.90;;;;;;5113683;28;20510;-69
2023/04/24 00:39:08;;;;;;;0.57;0.57;;;11.50;99.90;;;;;;5091627;28;20449;-68
2023/04/24 00:41:34;;;;;;;0.73;0.60;;;11.70;99.90;;;;;;5095029;28;20035;-68
2023/04/24 00:44:00;;;;;;;1.40;0.70;;;11.60;99.90;;;;;;5113530;28;20079;-68
2023/04/24 00:46:26;;;;;;;0.70;0.70;;;11.80;99.90;;;;;;5113744;28;20127;-69
2023/04/24 00:48:52;;;;;;;0.60;0.60;;;11.80;99.90;;;;;;5088672;28;20480;-69
2023/04/24 00:51:17;;;;;;;1.60;0.80;;;11.70;99.90;;;;;;5076111;28;20040;-69
2023/04/24 00:53:43;;;;;;;0.77;0.70;;;11.50;99.90;;;;;;5108943;28;20566;-69
2023/04/24 00:56:09;;;;;;;1.15;0.70;;;11.50;99.90;;;;;;5113045;28;20059;-69
2023/04/24 00:58:35;;;;;;;1.60;0.80;;;11.50;99.90;;;;;;5112166;28;20118;-69
2023/04/24 01:01:02;;;;;;;0.93;0.88;;;11.50;99.90;;;;;;5107379;28;20118;-68
2023/04/24 01:03:31;;;;;;;2.50;1.05;;;11.40;99.90;;;;;;5092614;28;20027;-68
2023/04/24 01:05:57;;;;;;;1.02;0.93;;;11.40;99.90;;;;;;5096029;28;20039;-69
2023/04/24 01:08:24;;;;;;;1.38;0.95;;;11.40;99.90;;;;;;5107887;28;20051;-69
2023/04/24 01:10:52;;;;;;;1.13;1.02;;;11.40;99.90;;;;;;5091878;28;20076;-69
2023/04/24 01:13:18;;;;;;;3.90;1.05;;;11.50;99.90;;;;;;5086518;28;20043;-68
2023/04/24 01:15:45;;;;;;;1.10;1.00;;;11.40;99.90;;;;;;5096668;28;20535;-68
2023/04/24 01:18:11;;;;;;;1.00;0.90;;;11.40;99.90;;;;;;5103826;28;20075;-69
2023/04/24 01:20:39;;;;;;;2.60;1.10;;;11.40;99.90;;;;;;5112432;28;20067;-69
2023/04/24 01:23:06;;;;;;;1.10;1.00;;;11.40;99.90;;;;;;5097179;28;20549;-69
2023/04/24 01:25:32;;;;;;;3.90;1.30;;;11.40;99.90;;;;;;5092306;28;20044;-69
2023/04/24 01:27:58;;;;;;;1.25;1.15;;;11.50;99.90;;;;;;5089649;28;20124;-68
2023/04/24 01:30:24;;;;;;;1.45;1.20;;;11.50;99.90;;;;;;5112756;28;20039;-69
2023/04/24 01:32:50;;;;;;;1.55;1.30;;;11.50;99.90;;;;;;5109813;28;20085;-68
2023/04/24 01:35:16;;;;;;;1.83;1.20;;;11.60;99.90;;;;;;5080767;28;20054;-68
2023/04/24 01:37:41;;;;;;;2.42;1.40;;;11.60;99.90;;;;;;5108154;28;20043;-69
2023/04/24 01:40:07;;;;;;;1.95;1.60;;;11.60;99.90;;;;;;5111559;28;20039;-68
2023/04/24 01:42:34;;;;;;;2.72;1.83;;;11.60;99.90;;;;;;5095485;28;20044;-68
2023/04/24 01:45:01;;;;;;;2.67;1.58;;;11.50;99.90;;;;;;5082814;28;20416;-69
2023/04/24 01:47:28;;;;;;;1.95;1.50;;;11.60;99.90;;;;;;5092348;28;20506;-69
2023/04/24 01:49:53;;;;;;;3.08;1.73;;;11.50;99.90;;;;;;5103177;28;20035;-69
2023/04/24 01:52:19;;;;;;;2.55;2.00;;;11.50;99.90;;;;;;5092699;28;20047;-68
2023/04/24 01:54:45;;;;;;;3.47;2.10;;;11.50;99.90;;;;;;5102082;28;20040;-68
2023/04/24 01:57:10;;;;;;;2.75;2.00;;;11.40;99.90;;;;;;5095020;28;20048;-69
2023/04/24 01:59:36;;;;;;;3.17;2.25;;;11.40;99.90;;;;;;5095744;28;20549;-68
2023/04/24 02:02:03;;;;;;;4.18;2.53;;;11.40;99.90;;;;;;5101177;28;20032;-69
2023/04/24 02:04:28;;;;;;;4.47;2.70;;;11.30;99.90;;;;;;5095790;28;20039;-69
2023/04/24 02:06:54;;;;;;;5.78;2.83;;;11.40;99.90;;;;;;5074653;28;20040;-69
2023/04/24 02:09:20;;;;;;;5.03;2.90;;;11.30;99.90;;;;;;5101786;28;20032;-68
2023/04/24 02:11:45;;;;;;;4.18;3.00;;;11.40;99.90;;;;;;5098509;28;20089;-68
2023/04/24 02:14:11;;;;;;;4.28;3.17;;;11.40;99.90;;;;;;5094970;28;20039;-69
2023/04/24 02:16:37;;;;;;;4.75;3.08;;;11.50;99.90;;;;;;5094265;28;20037;-68
2023/04/24 02:19:03;;;;;;;5.22;3.70;;;11.40;99.90;;;;;;5095428;28;20039;-68
2023/04/24 02:21:30;;;;;;;4.78;3.35;;;11.40;99.90;;;;;;5107410;28;20040;-69
2023/04/24 02:23:56;;;;;;;5.05;3.60;;;11.40;99.90;;;;;;5091316;28;20043;-68
2023/04/24 02:26:22;;;;;;;7.53;3.65;;;11.40;99.90;;;;;;5091786;28;20047;-69
2023/04/24 02:28:47;;;;;;;5.20;3.45;;;11.40;99.90;;;;;;5103369;28;20036;-69
2023/04/24 02:31:13;;;;;;;6.20;3.90;;;11.40;99.90;;;;;;5095154;28;20028;-69
2023/04/24 02:33:38;;;;;;;6.68;3.30;;;11.40;99.90;;;;;;5105836;28;20028;-69
2023/04/24 02:36:04;;;;;;;4.82;3.17;;;11.40;99.90;;;;;;5095034;28;20044;-69
2023/04/24 02:38:29;;;;;;;5.68;3.67;;;11.40;99.90;;;;;;5111035;28;20114;-69
2023/04/24 02:40:55;;;;;;;6.20;3.50;;;11.40;99.90;;;;;;5084638;28;20035;-69
2023/04/24 02:43:21;;;;;;;4.90;3.28;;;11.30;99.90;;;;;;5096886;28;20036;-69
2023/04/24 02:45:47;;;;;;;4.53;3.60;;;11.30;99.90;;;;;;5105528;28;20039;-69
2023/04/24 02:48:13;;;;;;;6.53;3.65;;;11.30;99.90;;;;;;5105763;28;20036;-69
2023/04/24 02:50:38;;;;;;;6.47;3.80;;;11.30;99.90;;;;;;5093379;28;20042;-69
2023/04/24 02:53:04;;;;;;;4.97;3.63;;;11.20;99.90;;;;;;5111162;27;20054;-69
2023/04/24 02:55:30;;;;;;;4.50;3.13;;;11.10;99.90;;;;;;5094663;28;20083;-69
2023/04/24 02:57:55;;;;;;;5.18;3.45;;;11.10;99.90;;;;;;5098225;28;20052;-69
2023/04/24 03:00:21;;;;;;;5.90;4.20;;;11.10;99.90;;;;;;5098056;28;20032;-69
2023/04/24 03:02:47;;;;;;;4.88;3.55;;;11.00;99.90;;;;;;5098475;28;20036;-69
2023/04/24 03:05:12;;;;;;;6.50;4.00;;;11.00;99.90;;;;;;5112610;28;20388;-70
2023/04/24 03:07:38;;;;;;;4.93;3.63;;;11.00;99.90;;;;;;5104336;28;20451;-69
2023/04/24 03:10:05;;;;;;;4.90;3.42;;;11.00;99.90;;;;;;5105588;28;20032;-70
2023/04/24 03:12:31;;;;;;;5.10;3.42;;;11.00;99.90;;;;;;5112446;28;20067;-70
2023/04/24 03:14:57;;;;;;;5.22;3.50;;;10.90;99.90;;;;;;5111182;28;20067;-70
2023/04/24 03:17:22;;;;;;;5.00;3.53;;;11.00;99.90;;;;;;5097526;28;20399;-70
2023/04/24 03:19:48;;;;;;;5.50;3.60;;;11.00;99.90;;;;;;5109330;28;20114;-70
2023/04/24 03:22:13;;;;;;;5.80;3.35;;;10.90;99.90;;;;;;5098414;28;20046;-70
2023/04/24 03:24:40;;;;;;;4.63;3.30;;;11.00;99.90;;;;;;5097097;27;20529;-70
2023/04/24 03:27:05;;;;;;;4.45;3.33;;;10.90;99.90;;;;;;5095423;28;20040;-70
2023/04/24 03:29:31;;;;;;;4.18;2.70;;;10.90;99.90;;;;;;5096557;28;20430;-70
2023/04/24 03:31:56;;;;;;;4.07;3.22;;;10.90;99.90;;;;;;5092518;28;20096;-70
2023/04/24 03:34:22;;;;;;;4.78;2.92;;;11.00;99.90;;;;;;5114598;27;20039;-70
2023/04/24 03:36:47;;;;;;;4.53;2.63;;;11.00;99.90;;;;;;5096095;28;20517;-70
2023/04/24 03:39:13;;;;;;;3.40;2.40;;;11.00;99.90;;;;;;5095284;28;20040;-70
2023/04/24 03:41:39;;;;;;;3.40;2.38;;;10.90;99.90;;;;;;5089610;28;20042;-70
2023/04/24 03:44:04;;;;;;;4.10;2.40;;;10.90;99.90;;;;;;5077615;28;20043;-70
2023/04/24 03:46:30;;;;;;;4.78;2.38;;;10.80;99.90;;;;;;5127508;27;20483;-70
2023/04/24 03:48:56;;;;;;;3.65;2.38;;;10.90;99.90;;;;;;5112755;28;20592;-70
2023/04/24 03:51:22;;;;;;;2.78;2.13;;;10.90;99.90;;;;;;5094493;28;20042;-70
2023/04/24 03:53:48;;;;;;;3.20;2.08;;;10.90;99.90;;;;;;5096055;28;20035;-70
2023/04/24 03:56:14;;;;;;;3.58;2.30;;;10.80;99.90;;;;;;5103520;28;20048;-70
2023/04/24 03:58:40;;;;;;;5.25;2.50;;;10.80;99.90;;;;;;5095435;28;20046;-70
2023/04/24 04:01:06;;;;;;;4.30;2.97;;;10.80;99.90;;;;;;5078837;28;20028;-70
2023/04/24 04:03:31;;;;;;;5.30;3.15;;;10.80;99.90;;;;;;5096521;28;20036;-69
2023/04/24 04:05:57;;;;;;;4.80;3.20;;;10.80;99.90;;;;;;5100096;28;20046;-70
2023/04/24 04:08:22;;;;;;;6.32;3.72;;;10.80;99.90;;;;;;5090231;28;20032;-70
2023/04/24 04:10:48;;;;;;;5.07;3.45;;;10.70;99.90;;;;;;5106511;28;20032;-70
2023/04/24 04:13:14;;;;;;;6.65;3.50;;;10.80;99.90;;;;;;5112871;27;20039;-70
2023/04/24 04:15:40;;;;;;;5.82;3.72;;;10.70;99.90;;;;;;5102495;28;20031;-69
2023/04/24 04:18:05;;;;;;;6.70;3.92;;;10.70;99.90;;;;;;5109813;28;20035;-69
2023/04/24 04:20:31;;;;;;;5.78;3.70;;;10.70;99.90;;;;;;5080632;28;20040;-69
2023/04/24 04:22:56;;;;;;;5.35;3.30;;;10.70;99.90;;;;;;5093085;28;20764;-69
2023/04/24 04:25:22;;;;;;;5.68;3.40;;;10.70;99.90;;;;;;5100132;28;20048;-69
2023/04/24 04:27:48;;;;;;;4.72;3.38;;;10.70;99.90;;;;;;5107105;28;20046;-69
2023/04/24 04:30:14;;;;;;;4.88;3.35;;;10.70;99.90;;;;;;5112395;28;20040;-70
2023/04/24 04:32:40;;;;;;;3.60;2.47;;;10.70;99.90;;;;;;5094581;28;20039;-70
2023/04/24 04:35:06;;;;;;;6.35;2.72;;;10.70;99.90;;;;;;5095801;28;20424;-70
2023/04/24 04:37:33;;;;;;;4.20;2.80;;;10.70;99.90;;;;;;5095575;28;20027;-70
2023/04/24 04:39:59;;;;;;;3.47;2.40;;;10.70;99.90;;;;;;5096713;28;20472;-70
2023/04/24 04:42:25;;;;;;;3.22;2.30;;;10.70;99.90;;;;;;5110496;28;20054;-70
2023/04/24 04:44:50;;;;;;;2.33;1.73;;;10.70;99.90;;;;;;5091246;28;20564;-70
2023/04/24 04:47:17;;;;;;;3.38;1.90;;;10.80;99.90;;;;;;5093210;28;20064;-70
2023/04/24 04:49:43;;;;;;;3.53;1.90;;;10.70;99.90;;;;;;5092440;28;20412;-70
2023/04/24 04:52:09;;;;;;;3.08;1.70;;;10.70;99.90;;;;;;5092556;28;20040;-70
2023/04/24 04:54:34;;;;;;;2.25;1.50;;;10.70;99.90;;;;;;5092426;28;20036;-70
2023/04/24 04:57:00;;;;;;;2.50;1.38;;;10.70;99.90;;;;;;5111132;28;20057;-70
2023/04/24 04:59:26;;;;;;;2.53;1.40;;;10.70;99.90;;;;;;5096240;28;20084;-70
2023/04/24 05:01:52;;;;;;;2.63;1.25;;;10.70;99.90;;;;;;5104998;28;20059;-69
2023/04/24 05:04:18;;;;;;;1.40;1.00;;;10.70;99.90;;;;;;5094637;28;20077;-69
2023/04/24 05:06:43;;;;;;;1.27;0.93;;;10.70;99.90;;;;;;5112145;28;20050;-69
2023/04/24 05:09:09;;;;;;;1.50;1.00;;;10.60;99.90;;;;;;5098206;28;20036;-69
2023/04/24 05:11:35;;;;;;;1.65;0.80;;;10.70;99.90;;;;;;5075478;28;20031;-68
2023/04/24 05:14:00;;;;;;;2.15;0.80;;;10.70;99.90;;;;;;5104249;28;20092;-69
2023/04/24 05:16:26;;;;;;;0.80;0.80;;;10.70;99.90;;;;;;5096141;28;20036;-69
2023/04/24 05:18:52;;;;;;;1.50;0.90;;;10.60;99.90;;;;;;5110158;28;20223;-69
2023/04/24 05:21:17;;;;;;;1.13;0.90;;;10.60;99.90;;;;;;5109820;28;20045;-68
2023/04/24 05:23:43;;;;;;;1.02;0.70;;;10.60;99.90;;;;;;5113099;28;20044;-68
2023/04/24 05:26:08;;;;;;;1.50;1.08;;;10.60;99.90;;;;;;5093783;28;20035;-68
2023/04/24 05:28:36;;;;;;;0.90;0.80;;;10.50;99.90;;;;;;5095724;28;20088;-68
2023/04/24 05:31:02;;;;;;;1.48;1.00;;;10.50;99.90;;;;;;5086702;28;20036;-68
2023/04/24 05:33:28;;;;;;;1.63;1.17;;;10.50;99.90;;;;;;5102520;28;20058;-68
2023/04/24 05:35:53;;;;;;;1.88;1.13;;;10.50;99.90;;;;;;5083827;28;20044;-68
2023/04/24 05:38:19;;;;;;;1.80;1.20;;;10.50;99.90;;;;;;5091939;28;20396;-68
2023/04/24 05:40:48;;;;;;;2.22;1.40;;;10.50;99.90;;;;;;5091932;28;20040;-69
2023/04/24 05:43:14;;;;;;;2.22;1.45;;;10.50;99.90;;;;;;5096915;28;20430;-69
2023/04/24 05:45:39;;;;;;;2.85;1.50;;;10.50;99.90;;;;;;5109266;28;20110;-69
2023/04/24 05:48:05;;;;;;;2.40;1.35;;;10.50;99.90;;;;;;5112392;28;20411;-68
2023/04/24 05:50:31;;;;;;;2.25;1.63;;;10.60;99.90;;;;;;5111728;28;20053;-69
2023/04/24 05:53:01;;;;;;;2.35;1.60;;;10.60;99.90;;;;;;5100800;28;20035;-69
2023/04/24 05:55:27;;;;;;;3.03;1.65;;;10.60;99.90;;;;;;5084849;28;20047;-68
2023/04/24 05:57:52;;;;;;;2.33;1.65;;;10.60;99.90;;;;;;5103331;28;20214;-68
2023/04/24 06:00:19;;;;;;;3.10;1.55;;;10.60;99.90;;;;;;5103906;28;20071;-68
2023/04/24 06:02:46;;;;;;;3.00;1.58;;;10.50;99.90;;;;;;5079125;28;20043;-69
2023/04/24 06:05:11;;;;;;;2.75;1.42;;;10.50;99.90;;;;;;5094185;28;20075;-68
2023/04/24 06:07:37;;;;;;;2.22;1.40;;;10.50;99.90;;;;;;5103456;28;20075;-69
2023/04/24 06:10:03;;;;;;;2.65;1.60;;;10.50;99.90;;;;;;5088418;28;20038;-69
2023/04/24 06:12:28;;;;;;;3.08;1.60;;;10.50;99.90;;;;;;5100154;28;20059;-69
2023/04/24 06:14:55;;;;;;;2.85;1.85;;;10.40;99.90;;;;;;5079160;28;20084;-69
2023/04/24 06:17:21;;;;;;;2.15;1.45;;;10.30;99.90;;;;;;5107621;28;20082;-69
2023/04/24 06:19:47;;;;;;;2.03;1.73;;;10.20;99.90;;;;;;5089805;28;20085;-70
2023/04/24 06:22:13;;;;;;;2.35;1.58;;;10.20;99.90;;;;;;5098646;28;20092;-70
2023/04/24 06:24:39;;;;;;;1.90;1.05;;;10.20;99.90;;;;;;5107582;28;20114;-70
2023/04/24 06:27:05;;;;;;;1.80;1.20;;;10.20;99.90;;;;;;5090228;28;20043;-70
2023/04/24 06:29:31;;;;;;;2.40;1.20;;;10.30;99.90;;;;;;5097134;28;20028;-70
2023/04/24 06:31:56;;;;;;;2.35;1.10;;;10.30;99.90;;;;;;5091118;28;20069;-70
2023/04/24 06:34:22;;;;;;;1.90;1.25;;;10.30;99.90;;;;;;5097025;28;20040;-70
2023/04/24 06:36:47;;;;;;;2.65;1.25;;;10.40;99.90;;;;;;5108674;28;20043;-70
2023/04/24 06:39:13;;;;;;;3.90;1.60;;;10.40;99.90;;;;;;5097779;28;20475;-70
2023/04/24 06:41:39;;;;;;;3.13;1.70;;;10.40;99.90;;;;;;5112468;28;20092;-70
2023/04/24 06:44:05;;;;;;;4.38;2.10;;;10.30;99.90;;;;;;5095731;28;20039;-69
2023/04/24 06:46:31;;;;;;;4.80;2.15;;;10.30;99.90;;;;;;5111932;28;20038;-70
2023/04/24 06:48:56;;;;;;;3.90;2.22;;;10.30;99.90;;;;;;5097790;28;20036;-70
2023/04/24 06:51:24;;;;;;;5.57;2.40;;;10.30;99.90;;;;;;5085697;28;20036;-70
2023/04/24 06:53:49;;;;;;;4.22;2.15;;;10.30;99.90;;;;;;5089588;28;20031;-70
2023/04/24 06:56:15;;;;;;;6.10;2.35;;;10.30;99.90;;;;;;5113795;28;20047;-70
2023/04/24 06:58:41;;;;;;;4.30;2.35;;;10.30;99.90;;;;;;5111563;28;20075;-70
2023/04/24 07:01:07;;;;;;;5.78;2.80;;;10.40;99.90;;;;;;5094762;28;20488;-70
2023/04/24 07:03:32;;;;;;;7.05;2.70;;;10.40;99.90;;;;;;5105715;28;20058;-70
2023/04/24 07:06:00;;;;;;;5.45;3.00;;;10.40;99.90;;;;;;5114432;28;20423;-70
2023/04/24 07:08:26;;;;;;;6.00;3.13;;;10.50;99.90;;;;;;5092415;28;20044;-70
2023/04/24 07:10:51;;;;;;;6.10;3.00;;;10.50;99.90;;;;;;5110793;28;20031;-70
2023/04/24 07:13:17;;;;;;;6.43;3.08;;;10.50;99.90;;;;;;5096640;28;20063;-69
2023/04/24 07:15:43;;;;;;;6.85;3.45;;;10.50;99.90;;;;;;5095592;28;20054;-69
2023/04/24 07:18:08;;;;;;;6.93;3.25;;;10.40;99.90;;;;;;5093186;28;20032;-69
2023/04/24 07:20:34;;;;;;;6.70;3.45;;;10.50;99.90;;;;;;5125608;27;20415;-69
2023/04/24 07:23:00;;;;;;;8.80;3.65;;;10.40;99.90;;;;;;5107663;28;20179;-69
2023/04/24 07:25:25;;;;;;;7.22;3.50;;;10.40;99.90;;;;;;5095787;27;20043;-69
2023/04/24 07:27:51;;;;;;;6.07;2.95;;;10.40;99.90;;;;;;5085256;28;20089;-69
2023/04/24 07:30:17;;;;;;;7.30;3.20;;;10.40;99.90;;;;;;5084667;28;20077;-69
2023/04/24 07:32:43;;;;;;;7.78;3.22;;;10.40;99.90;;;;;;5110228;27;20044;-69
2023/04/24 07:35:09;;;;;;;7.00;3.15;;;10.40;99.90;;;;;;5096938;28;20046;-68
2023/04/24 07:37:35;;;;;;;5.47;2.67;;;10.50;99.90;;;;;;5081051;28;20047;-69
2023/04/24 07:40:01;;;;;;;5.70;2.22;;;10.40;99.90;;;;;;5104147;28;20059;-69
2023/04/24 07:42:27;;;;;;;6.25;2.20;;;10.50;99.90;;;;;;5095099;28;20036;-68
2023/04/24 07:44:53;;;;;;;3.80;1.63;;;10.50;99.90;;;;;;5094108;28;20078;-68
2023/04/24 07:47:18;;;;;;;4.75;1.98;;;10.50;99.90;;;;;;5093295;28;20461;-68
2023/04/24 07:49:44;;;;;;;5.35;1.60;;;10.50;99.90;;;;;;5093898;28;20127;-69
2023/04/24 07:52:09;;;;;;;4.85;1.77;;;10.50;99.90;;;;;;5129005;27;20039;-69
2023/04/24 07:54:36;;;;;;;3.60;1.60;;;10.50;99.90;;;;;;5090937;28;20036;-69
2023/04/24 07:57:02;;;;;;;2.47;1.50;;;10.50;99.90;;;;;;5108547;28;20059;-68
2023/04/24 07:59:28;;;;;;;3.80;1.50;;;10.50;99.90;;;;;;5093881;28;20407;-69
2023/04/24 08:01:54;;;;;;;3.85;1.80;;;10.50;99.90;;;;;;5094447;28;20053;-69
2023/04/24 08:04:19;;;;;;;3.42;1.77;;;10.40;99.90;;;;;;5113383;28;20132;-69
2023/04/24 08:06:46;;;;;;;4.47;1.63;;;10.40;99.90;;;;;;5095365;28;20042;-68
2023/04/24 08:09:12;;;;;;;4.00;1.70;;;10.40;99.90;;;;;;5091351;28;20097;-69
2023/04/24 08:11:37;;;;;;;5.07;1.60;;;10.40;99.90;;;;;;5096571;28;20036;-69
2023/04/24 08:14:03;;;;;;;4.45;1.70;;;10.40;99.90;;;;;;5076111;28;20042;-68
2023/04/24 08:16:29;;;;;;;6.20;2.13;;;10.40;99.90;;;;;;5103650;28;20488;-68
2023/04/24 08:18:54;;;;;;;6.60;2.30;;;10.30;99.90;;;;;;5110141;28;20046;-68
2023/04/24 08:21:20;;;;;;;9.23;3.60;;;10.30;99.90;;;;;;5113807;28;20047;-68
2023/04/24 08:23:46;;;;;;;11.45;4.30;;;10.30;99.90;;;;;;5112265;28;20434;-68
2023/04/24 08:26:12;;;;;;;15.10;6.80;;;10.30;99.90;;;;;;5101591;28;20105;-68
2023/04/24 08:28:38;;;;;;;14.07;5.57;;;10.20;99.90;;;;;;5090633;28;20122;-68
2023/04/24 08:31:04;;;;;;;12.73;7.03;;;10.20;99.90;;;;;;5094985;28;20185;-68
2023/04/24 08:33:34;;;;;;;14.68;6.72;;;10.20;99.90;;;;;;5101996;28;20035;-68
2023/04/24 08:36:04;;;;;;;13.30;7.25;;;10.20;99.90;;;;;;5095717;28;20085;-68
2023/04/24 08:38:30;;;;;;;14.55;8.23;;;10.20;99.90;;;;;;5094534;28;20048;-68
2023/04/24 08:40:58;;;;;;;16.52;8.75;;;10.20;99.90;;;;;;5108960;28;20118;-68
2023/04/24 08:43:24;;;;;;;16.60;8.73;;;10.10;99.90;;;;;;5105279;28;20498;-68
2023/04/24 08:45:50;;;;;;;16.98;9.27;;;10.00;99.90;;;;;;5096901;28;20043;-68
2023/04/24 08:48:17;;;;;;;16.80;9.80;;;10.00;99.90;;;;;;5091183;28;20185;-68
2023/04/24 08:50:44;;;;;;;17.45;9.30;;;10.10;99.90;;;;;;5081282;28;20059;-68
2023/04/24 08:53:10;;;;;;;20.60;10.02;;;10.00;99.90;;;;;;5089684;28;20160;-69
2023/04/24 08:55:36;;;;;;;19.75;10.43;;;10.10;99.90;;;;;;5111811;28;20051;-68
2023/04/24 08:58:02;;;;;;;19.58;11.15;;;10.00;99.90;;;;;;5093287;28;20051;-68
2023/04/24 09:00:28;;;;;;;15.55;9.50;;;9.90;99.90;;;;;;5094491;28;20031;-68
2023/04/24 09:02:55;;;;;;;17.98;10.38;;;9.90;99.90;;;;;;5076875;28;20044;-68
2023/04/24 09:05:23;;;;;;;22.65;10.55;;;9.90;99.90;;;;;;5075934;28;20054;-68
2023/04/24 09:07:55;;;;;;;18.80;10.30;;;9.90;99.90;;;;;;5082549;28;20118;-69
2023/04/24 09:10:23;;;;;;;20.77;9.52;;;9.80;99.90;;;;;;5106406;28;20048;-68
2023/04/24 09:12:51;;;;;;;17.95;9.75;;;9.80;99.90;;;;;;5113850;27;20127;-69
2023/04/24 09:15:16;;;;;;;19.63;10.57;;;9.70;99.90;;;;;;5098716;28;20031;-69
2023/04/24 09:17:43;;;;;;;19.52;10.60;;;9.70;99.90;;;;;;5101269;28;20088;-69
2023/04/24 09:20:09;;;;;;;19.75;10.23;;;9.70;99.90;;;;;;5100036;28;20568;-68
2023/04/24 09:22:35;;;;;;;16.58;9.35;;;9.70;99.90;;;;;;5107896;28;20123;-69
2023/04/24 09:25:07;;;;;;;18.60;10.20;;;9.70;99.90;;;;;;5093462;28;20035;-68
2023/04/24 09:27:34;;;;;;;17.42;10.00;;;9.60;99.90;;;;;;5096770;28;20051;-69
2023/04/24 09:30:01;;;;;;;17.20;9.75;;;9.70;99.90;;;;;;5075791;28;20050;-68
2023/04/24 09:32:28;;;;;;;17.50;9.90;;;9.70;99.90;;;;;;5112231;28;20036;-68
2023/04/24 09:35:12;;;;;;;13.73;7.88;;;9.60;99.90;;;;;;5080666;28;20032;-68
2023/04/24 09:37:45;;;;;;;17.15;9.07;;;9.70;99.90;;;;;;5111006;28;20031;-68
2023/04/24 09:40:16;;;;;;;15.98;8.55;;;9.70;99.90;;;;;;5107472;28;20063;-68
2023/04/24 09:42:45;;;;;;;14.20;8.40;;;9.70;99.90;;;;;;5079418;28;20036;-68
2023/04/24 09:45:12;;;;;;;15.73;8.25;;;9.70;99.90;;;;;;5109559;27;20055;-68
2023/04/24 09:47:39;;;;;;;13.68;8.50;;;9.70;99.90;;;;;;5106717;28;20043;-68
2023/04/24 09:50:15;;;;;;;13.77;7.93;;;9.70;99.90;;;;;;5088485;28;20039;-68
2023/04/24 09:52:46;;;;;;;13.23;7.43;;;9.70;99.90;;;;;;5101884;28;20042;-68
2023/04/24 09:55:20;;;;;;;13.77;6.85;;;9.70;99.90;;;;;;5075565;28;20048;-68
2023/04/24 09:57:57;;;;;;;12.98;7.35;;;9.60;99.90;;;;;;5108301;28;20075;-68
2023/04/24 10:00:27;;;;;;;12.88;7.13;;;9.60;99.90;;;;;;5107493;28;20043;-69
2023/04/24 10:03:01;;;;;;;14.88;7.07;;;9.70;99.90;;;;;;5103579;28;20039;-69
2023/04/24 10:05:33;;;;;;;13.50;6.18;;;9.60;99.90;;;;;;5098613;28;20118;-68
2023/04/24 10:08:02;;;;;;;12.23;5.90;;;9.70;99.90;;;;;;5091178;28;20089;-68
2023/04/24 10:10:29;;;;;;;14.02;6.32;;;9.70;99.90;;;;;;5113751;28;20297;-69
2023/04/24 10:12:55;;;;;;;14.23;6.20;;;9.70;99.90;;;;;;5091942;28;20381;-69
2023/04/24 10:15:21;;;;;;;11.80;6.07;;;9.70;99.90;;;;;;5095294;28;20054;-69
2023/04/24 10:17:53;;;;;;;14.93;6.03;;;9.70;99.90;;;;;;5111558;28;20491;-69
2023/04/24 10:20:24;;;;;;;14.38;6.00;;;9.70;99.90;;;;;;5085603;28;20388;-68
2023/04/24 10:22:52;;;;;;;13.52;5.43;;;9.60;99.90;;;;;;5091139;28;20040;-69
2023/04/24 10:25:22;;;;;;;10.18;5.40;;;9.70;99.90;;;;;;5076190;28;20048;-69
2023/04/24 10:27:50;;;;;;;12.20;5.50;;;9.80;99.90;;;;;;5090521;28;20101;-69
2023/04/24 10:30:16;;;;;;;15.38;5.32;;;9.80;99.90;;;;;;5097915;28;20093;-69
2023/04/24 10:32:42;;;;;;;12.35;4.55;;;9.90;99.90;;;;;;5109756;28;20036;-69
2023/04/24 10:35:08;;;;;;;10.30;4.30;;;9.80;99.90;;;;;;5092428;28;20508;-68
2023/04/24 10:37:38;;;;;;;12.38;4.85;;;9.90;99.90;;;;;;5098643;28;20132;-69
2023/04/24 10:40:05;;;;;;;13.43;4.47;;;9.90;99.90;;;;;;5104372;28;20043;-69
2023/04/24 10:42:31;;;;;;;13.77;3.75;;;10.00;99.90;;;;;;5089483;28;20047;-68
2023/04/24 10:44:57;;;;;;;13.10;4.45;;;9.90;99.90;;;;;;5091861;28;20044;-69
2023/04/24 10:47:23;;;;;;;10.20;3.65;;;9.80;99.90;;;;;;5109017;28;20050;-69
2023/04/24 10:49:50;;;;;;;10.95;3.75;;;9.90;99.90;;;;;;5093412;28;20036;-69
2023/04/24 10:52:16;;;;;;;7.65;3.78;;;9.90;99.90;;;;;;5108292;28;20069;-69
2023/04/24 10:54:45;;;;;;;10.23;2.95;;;9.90;99.90;;;;;;5102196;28;20116;-69
2023/04/24 10:57:22;;;;;;;11.05;3.38;;;10.00;99.90;;;;;;5113208;28;20052;-69
2023/04/24 11:00:14;;;;;;;7.80;3.03;;;9.90;99.90;;;;;;5094294;28;20036;-69
2023/04/24 11:02:43;;;;;;;6.93;2.78;;;10.00;99.90;;;;;;5098293;28;20067;-69
2023/04/24 11:05:10;;;;;;;9.77;3.28;;;10.00;99.90;;;;;;5107809;28;20515;-69
2023/04/24 11:08:11;;;;;;;10.15;2.60;;;10.10;99.90;;;;;;5111017;28;20118;-69
2023/04/24 11:11:02;;;;;;;7.90;2.70;;;10.10;99.90;;;;;;5086856;28;20040;-69
2023/04/24 11:13:54;;;;;;;9.23;2.60;;;10.20;99.90;;;;;;5102496;28;20044;-69
2023/04/24 11:16:29;;;;;;;7.23;2.27;;;10.10;99.90;;;;;;5082701;28;20373;-69
2023/04/24 11:19:09;;;;;;;4.97;1.92;;;10.20;99.90;;;;;;5085630;28;20559;-69
2023/04/24 11:21:49;;;;;;;8.15;2.50;;;10.20;99.90;;;;;;5089979;28;20050;-69
2023/04/24 11:24:27;;;;;;;9.73;2.40;;;10.20;99.90;;;;;;5094500;28;20368;-69
2023/04/24 11:27:07;;;;;;;6.78;2.13;;;10.10;99.90;;;;;;5104503;27;20077;-69
2023/04/24 11:29:55;;;;;;;5.85;2.17;;;10.10;99.90;;;;;;5112012;27;20046;-69
2023/04/24 11:32:34;;;;;;;7.63;3.20;;;10.10;99.90;;;;;;5097873;28;20483;-70
2023/04/24 11:35:05;;;;;;;5.80;1.92;;;10.10;99.90;;;;;;5103738;28;20120;-69
2023/04/24 11:37:39;;;;;;;8.73;2.25;;;10.10;99.90;;;;;;5077161;28;20506;-69
2023/04/24 11:40:07;;;;;;;8.60;2.58;;;10.10;99.90;;;;;;5077010;28;20047;-69
2023/04/24 11:42:39;;;;;;;9.88;2.33;;;10.10;99.90;;;;;;5100403;28;20044;-69
2023/04/24 11:45:11;;;;;;;7.93;2.22;;;10.10;99.90;;;;;;5095769;28;20161;-69
2023/04/24 11:47:37;;;;;;;7.40;2.23;;;10.20;99.90;;;;;;5113023;28;20120;-69
2023/04/24 11:50:04;;;;;;;6.30;2.03;;;10.40;99.90;;;;;;5114431;28;20136;-69
2023/04/24 11:52:31;;;;;;;9.18;2.90;;;10.40;99.90;;;;;;5106482;28;20031;-70
2023/04/24 11:54:57;;;;;;;8.48;2.03;;;10.50;99.90;;;;;;5082857;28;20448;-69
2023/04/24 11:57:26;;;;;;;7.63;2.00;;;10.50;99.90;;;;;;5077121;28;20047;-69
2023/04/24 11:59:51;;;;;;;7.95;1.92;;;10.50;99.90;;;;;;5101763;28;20043;-69
2023/04/24 12:02:25;;;;;;;9.57;2.08;;;10.50;99.90;;;;;;5097717;28;20032;-69
2023/04/24 12:04:52;;;;;;;6.32;2.00;;;10.40;99.90;;;;;;5122637;27;20039;-69
2023/04/24 12:07:17;;;;;;;11.00;1.90;;;10.40;99.90;;;;;;5118692;27;20417;-69
2023/04/24 12:09:59;;;;;;;11.50;3.05;;;10.20;99.90;;;;;;5097079;28;20036;-69
2023/04/24 12:12:27;;;;;;;5.47;1.40;;;10.20;99.90;;;;;;5076964;28;20139;-69
2023/04/24 12:14:57;;;;;;;6.97;1.50;;;10.10;99.90;;;;;;5115880;27;20031;-69
2023/04/24 12:17:31;;;;;;;6.40;1.50;;;10.10;99.90;;;;;;5119111;27;20491;-69
2023/04/24 12:19:59;;;;;;;5.38;1.73;;;10.00;99.90;;;;;;5111608;27;20044;-69
2023/04/24 12:22:25;;;;;;;7.95;1.80;;;9.90;99.90;;;;;;5093288;28;20040;-69
2023/04/24 12:25:05;;;;;;;6.28;1.70;;;9.80;99.90;;;;;;5076147;28;20089;-69
2023/04/24 12:27:32;;;;;;;11.15;1.70;;;9.70;99.90;;;;;;5076429;28;20392;-69
2023/04/24 12:29:59;;;;;;;4.72;1.60;;;9.70;99.90;;;;;;5076419;28;20066;-69
2023/04/24 12:32:25;;;;;;;5.50;1.52;;;9.70;99.90;;;;;;5076189;28;20416;-69
2023/04/24 12:34:54;;;;;;;8.45;2.35;;;9.70;99.90;;;;;;5077462;28;20040;-69
2023/04/24 12:37:22;;;;;;;7.93;1.95;;;9.60;99.90;;;;;;5091745;28;20492;-69
2023/04/24 12:40:06;;;;;;;7.60;2.13;;;9.70;99.90;;;;;;5112106;28;20035;-69
2023/04/24 12:42:33;;;;;;;6.50;1.83;;;9.70;99.90;;;;;;5097127;28;20088;-69
2023/04/24 12:45:00;;;;;;;7.47;2.30;;;9.80;99.90;;;;;;5093576;28;20411;-69